Time;durP1;ratioP1;P1;durP2;ratioP2;P2;SDS_P1;SDS_P2;PMS_P1;PMS_P2;Temp;Humidity;BMP_temperature;BMP_pressure;BME280_temperature;BME280_humidity;BME280_pressure;Samples;Min_cycle;Max_cycle;Signal;HPM_P1;HPM_P2
2022/04/10 00:01:50;;;;;;;;;;;;;;;29.69;60.92;100911.72;5082933;27;70981;-36
2022/04/10 00:04:22;;;;;;;28.10;13.40;;;;;;;29.89;62.69;100910.84;5115825;27;66346;-37
2022/04/10 00:06:54;;;;;;;26.20;12.48;;;;;;;29.89;62.95;100911.66;5103464;27;70932;-36
2022/04/10 00:09:25;;;;;;;40.38;23.85;;;;;;;29.81;64.60;100901.94;5102324;27;67275;-37
2022/04/10 00:11:56;;;;;;;26.40;14.75;;;;;;;29.83;65.29;100917.91;5136506;27;69562;-37
2022/04/10 00:14:26;;;;;;;24.92;12.27;;;;;;;29.76;65.99;100907.13;5103387;27;66467;-36
2022/04/10 00:16:58;;;;;;;28.30;12.18;;;;;;;29.76;65.80;100915.25;5119935;27;69873;-38
2022/04/10 00:19:28;;;;;;;32.28;11.75;;;;;;;29.81;66.28;100918.16;5113120;27;65701;-38
2022/04/10 00:21:59;;;;;;;29.25;12.20;;;;;;;29.84;66.34;100917.72;5100245;27;69466;-37
2022/04/10 00:24:30;;;;;;;24.90;12.07;;;;;;;29.91;65.35;100933.09;5103964;27;66572;-36
2022/04/10 00:27:01;;;;;;;32.60;12.48;;;;;;;29.87;65.94;100930.00;5110654;27;69850;-37
2022/04/10 00:29:31;;;;;;;26.15;12.57;;;;;;;29.92;66.16;100937.44;5116418;27;65398;-37
2022/04/10 00:32:02;;;;;;;20.92;10.90;;;;;;;29.88;66.37;100933.53;5112979;27;69803;-37
2022/04/10 00:34:33;;;;;;;24.70;10.75;;;;;;;29.43;66.85;100863.09;5123586;27;67410;-36
2022/04/10 00:37:04;;;;;;;33.28;11.80;;;;;;;29.95;66.00;100945.13;5110082;27;70043;-37
2022/04/10 00:39:35;;;;;;;30.65;11.98;;;;;;;29.86;66.69;100938.31;5107634;27;67823;-37
2022/04/10 00:42:06;;;;;;;53.15;13.75;;;;;;;29.99;67.22;100949.09;5090061;27;69906;-37
2022/04/10 00:44:37;;;;;;;29.90;12.57;;;;;;;29.92;66.58;100953.69;5108296;27;66695;-36
2022/04/10 00:47:10;;;;;;;28.98;13.45;;;;;;;30.00;67.08;100966.97;5107240;27;69608;-36
2022/04/10 00:49:41;;;;;;;27.23;13.30;;;;;;;29.97;66.91;100959.28;5100620;27;65925;-37
2022/04/10 00:52:12;;;;;;;22.20;12.07;;;;;;;29.88;66.66;100952.44;5106489;27;70209;-37
2022/04/10 00:54:43;;;;;;;29.25;13.35;;;;;;;29.94;67.36;100959.72;5123690;27;65913;-36
2022/04/10 00:57:15;;;;;;;28.00;12.70;;;;;;;29.80;67.34;100943.50;5101097;27;70288;-38
2022/04/10 00:59:46;;;;;;;21.42;12.55;;;;;;;30.06;67.10;100977.78;5093207;27;65428;-37
2022/04/10 01:02:17;;;;;;;27.63;14.32;;;;;;;29.97;66.87;100956.56;5107468;27;70349;-38
2022/04/10 01:04:48;;;;;;;26.02;13.07;;;;;;;30.07;66.84;100978.63;5087600;27;65640;-39
2022/04/10 01:07:21;;;;;;;21.17;12.02;;;;;;;30.13;66.65;100982.34;5118907;27;70280;-36
2022/04/10 01:09:52;;;;;;;31.38;12.85;;;;;;;30.15;66.66;100978.38;5111785;27;66325;-36
2022/04/10 01:12:24;;;;;;;26.15;12.10;;;;;;;30.15;65.85;100969.44;5101938;27;69941;-37
2022/04/10 01:15:01;;;;;;;25.65;13.27;;;;;;;30.28;65.86;100985.63;5103817;27;65357;-36
2022/04/10 01:17:37;;;;;;;30.42;13.65;;;;;;;30.31;65.55;100981.69;5104848;27;71150;-37
2022/04/10 01:20:10;;;;;;;24.40;12.25;;;;;;;30.34;65.22;100983.94;5076019;27;66157;-38
2022/04/10 01:22:45;;;;;;;33.83;13.45;;;;;;;30.37;64.89;100992.50;5095653;27;68697;-36
2022/04/10 01:25:16;;;;;;;;;;;;;;;30.14;65.65;100989.41;5090083;27;66362;-36
2022/04/10 01:27:48;;;;;;;26.15;12.38;;;;;;;30.41;64.89;101001.00;5109396;27;70534;-37
2022/04/10 01:30:25;;;;;;;24.73;12.57;;;;;;;30.46;64.88;100998.50;5095174;27;66171;-37
2022/04/10 01:32:57;;;;;;;27.73;12.60;;;;;;;30.49;64.55;101003.47;5103772;27;69982;-37
2022/04/10 01:35:31;;;;;;;37.30;13.48;;;;;;;30.53;64.16;100996.56;5088128;27;66388;-37
2022/04/10 01:38:05;;;;;;;26.45;12.35;;;;;;;30.46;64.18;100983.06;5101216;27;69004;-37
2022/04/10 01:40:41;;;;;;;31.00;13.93;;;;;;;30.64;64.07;101005.91;5103490;27;66185;-37
2022/04/10 01:43:13;;;;;;;25.90;12.43;;;;;;;30.56;64.00;100993.44;5102539;27;71144;-36
2022/04/10 01:45:43;;;;;;;35.53;13.82;;;;;;;30.69;63.74;101006.09;5109492;27;65029;-37
2022/04/10 01:48:14;;;;;;;31.25;14.38;;;;;;;30.66;64.33;101001.09;5096141;27;70329;-37
2022/04/10 01:50:45;;;;;;;31.13;14.88;;;;;;;30.79;63.87;101011.88;5112841;27;65068;-37
2022/04/10 01:53:16;;;;;;;36.17;15.57;;;;;;;30.84;63.72;101008.53;5128321;27;69523;-37
2022/04/10 01:55:47;;;;;;;;;;;;;;;30.36;63.78;100971.88;5106368;27;66618;-36
2022/04/10 01:58:20;;;;;;;26.42;13.85;;;;;;;30.87;62.54;101008.09;5092256;27;70151;-37
2022/04/10 02:00:52;;;;;;;21.52;13.23;;;;;;;30.90;62.70;101021.22;5101926;27;65165;-37
2022/04/10 02:03:24;;;;;;;30.10;14.15;;;;;;;30.89;62.41;101014.13;5118487;27;70339;-37
2022/04/10 02:05:56;;;;;;;20.60;13.32;;;;;;;30.89;62.40;101000.59;5091754;27;66449;-36
2022/04/10 02:08:31;;;;;;;33.83;13.88;;;;;;;30.90;61.57;100999.56;5095183;27;70436;-37
2022/04/10 02:11:11;;;;;;;25.25;13.45;;;;;;;30.99;61.75;101003.66;5095511;27;65825;-37
2022/04/10 02:13:46;;;;;;;34.00;13.73;;;;;;;30.97;62.44;101000.31;5114118;27;69316;-37
2022/04/10 02:16:19;;;;;;;30.02;14.80;;;;;;;31.11;61.63;101011.91;5103070;27;65165;-37
2022/04/10 02:19:00;;;;;;;24.13;14.45;;;;;;;31.15;61.43;101013.97;5095912;27;69323;-38
2022/04/10 02:21:45;;;;;;;25.20;13.80;;;;;;;31.21;60.33;101011.44;5117194;27;66199;-36
2022/04/10 02:24:16;;;;;;;24.57;14.33;;;;;;;31.23;59.82;101007.47;5107534;27;69966;-36
2022/04/10 02:26:47;;;;;;;35.37;15.47;;;;;;;31.27;59.76;101005.13;5101474;27;65446;-46
2022/04/10 02:29:19;;;;;;;35.15;16.17;;;;;;;31.29;59.79;101005.75;5111125;27;69070;-37
2022/04/10 02:31:50;;;;;;;28.67;14.80;;;;;;;31.34;59.90;101005.91;5114001;27;65764;-37
2022/04/10 02:34:21;;;;;;;34.70;15.25;;;;;;;31.29;59.91;100997.63;5102299;27;70853;-36
2022/04/10 02:36:53;;;;;;;28.80;15.93;;;;;;;31.37;59.27;101005.47;5109413;27;66141;-39
2022/04/10 02:39:24;;;;;;;24.07;15.43;;;;;;;31.38;59.83;101002.56;5090214;27;69974;-37
2022/04/10 02:41:56;;;;;;;32.25;16.30;;;;;;;31.42;60.01;100992.09;5081994;27;66118;-35
2022/04/10 02:44:27;;;;;;;30.80;18.05;;;;;;;31.52;59.24;100999.75;5096480;27;69421;-38
2022/04/10 02:46:59;;;;;;;30.05;18.63;;;;;;;31.50;59.19;100989.13;5079110;27;67042;-37
2022/04/10 02:49:31;;;;;;;36.67;17.25;;;;;;;31.52;59.06;100976.16;5110606;27;70394;-36
2022/04/10 02:52:06;;;;;;;28.30;16.60;;;;;;;31.65;59.33;100987.94;5106204;27;66658;-35
2022/04/10 02:54:37;;;;;;;26.08;18.38;;;;;;;31.67;59.05;100985.84;5097071;27;69508;-35
2022/04/10 02:57:27;;;;;;;24.70;17.13;;;;;;;31.63;59.24;100977.31;5112736;27;66621;-35
2022/04/10 03:00:23;;;;;;;24.48;18.25;;;;;;;31.71;58.49;100989.78;5106665;27;69950;-35
2022/04/10 03:03:13;;;;;;;33.40;18.13;;;;;;;31.73;58.72;100979.50;5107468;27;65637;-34
2022/04/10 03:06:03;;;;;;;35.97;18.30;;;;;;;31.77;58.83;100978.03;5107800;27;69301;-35
2022/04/10 03:08:56;;;;;;;31.52;17.92;;;;;;;31.80;58.59;100961.31;5104341;27;66584;-36
2022/04/10 03:11:50;;;;;;;27.70;17.05;;;;;;;31.83;58.58;100967.09;5117354;27;70052;-35
2022/04/10 03:14:39;;;;;;;29.60;17.77;;;;;;;31.85;57.91;100969.59;5104625;27;66579;-34
2022/04/10 03:17:31;;;;;;;25.17;16.63;;;;;;;31.86;58.38;100954.97;5110654;27;70123;-37
2022/04/10 03:20:22;;;;;;;22.80;16.67;;;;;;;31.93;58.22;100955.78;5119339;27;65287;-38
2022/04/10 03:23:12;;;;;;;28.70;18.23;;;;;;;31.99;58.45;100968.44;5092516;27;68944;-36
2022/04/10 03:26:04;;;;;;;29.47;18.50;;;;;;;32.01;57.69;100960.91;5111815;27;66119;-37
2022/04/10 03:28:55;;;;;;;32.00;19.05;;;;;;;32.02;58.07;100959.84;5105674;27;70509;-35
2022/04/10 03:31:45;;;;;;;30.65;18.40;;;;;;;31.92;59.05;100956.81;5121317;27;65763;-36
2022/04/10 03:34:34;;;;;;;23.48;16.27;;;;;;;31.94;59.62;100962.84;5091733;27;70115;-35
2022/04/10 03:37:24;;;;;;;25.80;16.00;;;;;;;31.91;60.03;100957.03;5104562;27;67165;-36
2022/04/10 03:40:13;;;;;;;23.27;15.10;;;;;;;31.87;59.95;100945.75;5099083;27;69712;-36
2022/04/10 03:43:11;;;;;;;20.40;15.23;;;;;;;31.78;60.27;100930.84;5109159;27;66177;-36
2022/04/10 03:46:00;;;;;;;23.50;14.75;;;;;;;31.88;60.05;100947.44;5109324;27;70602;-36
2022/04/10 03:48:50;;;;;;;25.88;16.13;;;;;;;31.79;59.97;100932.53;5109228;27;66557;-36
2022/04/10 03:51:39;;;;;;;20.33;14.93;;;;;;;31.87;60.00;100934.91;5098604;27;69317;-35
2022/04/10 03:54:31;;;;;;;21.60;16.00;;;;;;;31.84;59.72;100935.38;5107858;27;65646;-35
2022/04/10 03:57:19;;;;;;;16.88;14.25;;;;;;;31.79;59.92;100911.66;5101170;27;70478;-36
2022/04/10 04:00:22;;;;;;;19.52;14.90;;;;;;;31.83;59.25;100917.44;5103534;27;66739;-37
2022/04/10 04:03:17;;;;;;;18.63;15.52;;;;;;;31.82;59.11;100910.38;5116756;27;70264;-36
2022/04/10 04:06:06;;;;;;;21.15;14.80;;;;;;;31.80;59.38;100901.63;5114226;27;66304;-36
2022/04/10 04:08:56;;;;;;;21.48;15.07;;;;;;;31.81;59.21;100898.69;5100496;27;70543;-36
2022/04/10 04:11:44;;;;;;;18.60;15.27;;;;;;;31.63;59.21;100865.31;5103470;27;66480;-35
2022/04/10 04:14:35;;;;;;;17.92;15.30;;;;;;;31.75;58.83;100882.50;5118306;27;69648;-36
2022/04/10 04:17:24;;;;;;;16.35;14.75;;;;;;;31.89;58.79;100892.13;5103772;27;66601;-36
2022/04/10 04:20:16;;;;;;;18.03;15.33;;;;;;;31.86;58.62;100892.59;5119291;27;70843;-36
2022/04/10 04:23:05;;;;;;;16.73;14.82;;;;;;;31.89;58.99;100884.00;5110779;27;66647;-36
2022/04/10 04:25:55;;;;;;;17.70;14.57;;;;;;;31.87;58.44;100871.69;5107546;27;70216;-36
2022/04/10 04:28:48;;;;;;;18.27;15.57;;;;;;;31.87;58.45;100869.81;5101241;27;66718;-35
2022/04/10 04:31:39;;;;;;;18.23;14.38;;;;;;;31.90;58.65;100866.69;5110487;27;69464;-36
2022/04/10 04:34:29;;;;;;;16.75;15.07;;;;;;;31.88;58.94;100849.78;5100087;27;66090;-35
2022/04/10 04:37:18;;;;;;;16.60;14.68;;;;;;;31.89;58.57;100851.44;5087513;27;69863;-35
2022/04/10 04:40:11;;;;;;;18.90;15.57;;;;;;;31.96;58.53;100854.94;5104074;27;65943;-37
2022/04/10 04:43:01;;;;;;;18.35;15.57;;;;;;;31.96;58.60;100841.38;5105174;27;70163;-34
2022/04/10 04:45:54;;;;;;;16.38;14.82;;;;;;;31.98;58.44;100841.97;5112410;27;66565;-34
2022/04/10 04:48:44;;;;;;;17.92;14.90;;;;;;;31.94;58.25;100820.94;5108588;27;69664;-39
2022/04/10 04:51:36;;;;;;;20.25;15.75;;;;;;;31.99;58.66;100830.06;5109494;27;66503;-37
2022/04/10 04:54:36;;;;;;;18.38;15.70;;;;;;;32.01;58.44;100814.38;5104811;27;70480;-36
2022/04/10 04:57:26;;;;;;;16.65;14.77;;;;;;;31.94;58.13;100793.81;5101584;27;66410;-35
2022/04/10 05:00:23;;;;;;;20.10;15.38;;;;;;;32.04;58.51;100805.78;5103279;27;69581;-36
2022/04/10 05:03:19;;;;;;;21.70;15.55;;;;;;;32.11;58.02;100802.16;5116785;27;65726;-35
2022/04/10 05:06:08;;;;;;;27.95;18.08;;;;;;;32.20;57.98;100785.28;5102329;27;70050;-37
2022/04/10 05:08:58;;;;;;;28.30;18.48;;;;;;;32.16;58.11;100759.69;5103903;27;66387;-36
2022/04/10 05:11:48;;;;;;;18.05;16.23;;;;;;;32.19;55.96;100780.94;5113417;27;69999;-36
2022/04/10 05:14:39;;;;;;;25.80;17.60;;;;;;;31.99;54.14;100773.09;5097088;27;66788;-36
2022/04/10 05:17:29;;;;;;;24.52;16.90;;;;;;;31.88;52.61;100767.59;5111018;27;70460;-35
2022/04/10 05:20:20;;;;;;;20.80;16.80;;;;;;;31.64;51.29;100758.50;5117022;27;66481;-36
2022/04/10 05:23:32;;;;;;;17.67;16.00;;;;;;;31.59;50.46;100754.63;5104386;27;70609;-35
2022/04/10 05:26:29;;;;;;;17.60;15.90;;;;;;;31.54;48.66;100757.19;5102637;27;66477;-36
2022/04/10 05:29:21;;;;;;;17.50;15.65;;;;;;;31.41;48.17;100742.97;5118949;27;70224;-38
2022/04/10 05:32:11;;;;;;;18.23;15.00;;;;;;;31.38;47.34;100746.94;5115034;27;66762;-36
2022/04/10 05:35:06;;;;;;;16.75;14.95;;;;;;;31.26;46.87;100733.31;5105880;27;70270;-36
2022/04/10 05:37:55;;;;;;;16.05;14.25;;;;;;;31.25;46.26;100725.38;5105369;27;65864;-36
2022/04/10 05:40:52;;;;;;;14.93;13.35;;;;;;;31.23;46.12;100722.91;5108598;27;69959;-38
2022/04/10 05:43:46;;;;;;;20.55;13.40;;;;;;;31.16;44.89;100712.13;5119699;27;65590;-37
2022/04/10 05:46:39;;;;;;;20.60;12.65;;;;;;;31.12;44.53;100699.25;5104965;27;70779;-37
2022/04/10 05:49:38;;;;;;;15.35;12.82;;;;;;;31.14;44.52;100697.97;5113788;27;66398;-36
2022/04/10 05:52:27;;;;;;;14.32;13.02;;;;;;;31.03;43.87;100671.66;5109646;27;69368;-36
2022/04/10 05:55:18;;;;;;;15.20;12.82;;;;;;;31.06;43.44;100692.88;5106842;27;65683;-36
2022/04/10 05:58:07;;;;;;;13.73;12.50;;;;;;;31.03;43.10;100673.53;5106152;27;69582;-36
2022/04/10 06:00:58;;;;;;;13.35;12.18;;;;;;;31.03;43.38;100671.66;5109354;27;65992;-37
2022/04/10 06:03:47;;;;;;;15.77;12.18;;;;;;;31.00;42.48;100663.97;5105115;27;69364;-36
2022/04/10 06:06:37;;;;;;;13.63;12.27;;;;;;;31.02;42.95;100650.22;5106753;27;66114;-36
2022/04/10 06:09:33;;;;;;;16.00;11.93;;;;;;;31.00;42.78;100642.31;5114224;27;70081;-34
2022/04/10 06:12:22;;;;;;;13.02;11.48;;;;;;;31.03;42.55;100631.00;5104040;27;66312;-36
2022/04/10 06:15:12;;;;;;;12.63;11.43;;;;;;;31.05;42.20;100634.34;5092263;27;70121;-36
2022/04/10 06:17:45;;;;;;;11.15;10.45;;;;;;;31.04;41.36;100627.28;5108861;27;65967;-36
2022/04/10 06:20:17;;;;;;;12.52;11.30;;;;;;;31.05;41.64;100620.78;5111290;27;70012;-35
2022/04/10 06:22:48;;;;;;;11.97;10.97;;;;;;;30.93;41.46;100596.34;5108645;27;65859;-35
2022/04/10 06:25:21;;;;;;;11.77;10.73;;;;;;;31.03;41.25;100614.75;5113819;27;70346;-43
2022/04/10 06:27:52;;;;;;;11.85;10.90;;;;;;;30.98;41.03;100597.53;5105984;27;66025;-36
2022/04/10 06:30:23;;;;;;;12.00;10.88;;;;;;;31.04;41.13;100608.31;5108164;27;70015;-36
2022/04/10 06:32:57;;;;;;;11.95;11.10;;;;;;;31.06;40.86;100600.75;5107464;27;66443;-35
2022/04/10 06:35:29;;;;;;;15.18;11.00;;;;;;;31.07;41.11;100597.00;5121231;27;69354;-36
2022/04/10 06:38:04;;;;;;;11.60;10.63;;;;;;;31.09;40.80;100596.75;5102425;27;66016;-35
2022/04/10 06:40:35;;;;;;;11.20;10.23;;;;;;;30.99;40.90;100585.66;5120584;27;69773;-36
2022/04/10 06:43:07;;;;;;;10.82;10.02;;;;;;;31.08;41.00;100585.09;5120790;27;66197;-37
2022/04/10 06:46:00;;;;;;;10.57;9.55;;;;;;;31.07;40.73;100583.47;5107057;27;68743;-35
2022/04/10 06:48:38;;;;;;;11.25;10.15;;;;;;;31.13;40.90;100582.53;5100755;27;65457;-36
2022/04/10 06:51:08;;;;;;;;;;;;;;;30.83;40.90;100576.28;5098161;27;69193;-36
2022/04/10 06:53:39;;;;;;;13.18;10.73;;;;;;;31.02;40.53;100563.53;5095015;27;67181;-36
2022/04/10 06:56:11;;;;;;;11.02;10.15;;;;;;;31.08;40.09;100562.63;5100965;27;69069;-36
2022/04/10 06:58:42;;;;;;;10.80;10.05;;;;;;;31.02;39.78;100550.81;5123298;27;65919;-35
2022/04/10 07:01:13;;;;;;;10.90;9.85;;;;;;;31.25;40.86;100546.53;5127612;27;69893;-35
2022/04/10 07:03:45;;;;;;;13.88;9.60;;;;;;;31.51;41.90;100529.91;5103436;27;65735;-35
2022/04/10 07:06:19;;;;;;;11.00;10.15;;;;;;;31.88;45.20;100540.56;5093770;27;69157;-36
2022/04/10 07:08:50;;;;;;;22.90;12.25;;;;;;;32.15;46.20;100545.53;5112915;27;66016;-36
2022/04/10 07:11:27;;;;;;;16.13;12.55;;;;;;;32.37;47.02;100540.31;5120848;27;70594;-36
2022/04/10 07:13:59;;;;;;;14.00;12.60;;;;;;;32.57;47.34;100548.09;5103755;27;66082;-35
2022/04/10 07:16:30;;;;;;;15.55;13.70;;;;;;;32.72;48.02;100529.41;5123411;27;69913;-37
2022/04/10 07:19:02;;;;;;;15.52;13.95;;;;;;;32.87;48.07;100529.69;5122837;27;66096;-36
2022/04/10 07:24:23;;;;;;;15.55;13.95;;;;;;;33.16;48.51;100529.72;5115367;27;65737;-35
2022/04/10 07:26:59;;;;;;;14.90;13.50;;;;;;;33.28;49.01;100527.75;5109197;27;70235;-35
2022/04/10 07:29:36;;;;;;;18.10;13.80;;;;;;;33.37;48.83;100526.28;5101993;27;66654;-38
2022/04/10 07:32:07;;;;;;;14.43;12.90;;;;;;;33.46;49.36;100523.16;5100409;27;70033;-41
2022/04/10 07:34:47;;;;;;;15.70;14.20;;;;;;;33.53;49.50;100524.66;5102613;27;66440;-37
2022/04/10 07:37:32;;;;;;;16.08;13.90;;;;;;;33.56;49.45;100510.56;5106048;27;69904;-36
2022/04/10 07:40:05;;;;;;;15.05;13.55;;;;;;;33.69;49.57;100514.06;5108947;27;66534;-35
2022/04/10 07:42:44;;;;;;;18.10;14.50;;;;;;;33.69;50.32;100501.28;5107543;27;69882;-36
2022/04/10 07:48:25;;;;;;;15.05;13.45;;;;;;;33.79;49.88;100500.59;5105368;27;70411;-36
2022/04/10 07:50:57;;;;;;;15.63;14.07;;;;;;;33.86;50.06;100506.69;5101937;27;66062;-35
2022/04/10 07:53:41;;;;;;;20.50;14.07;;;;;;;33.94;50.22;100503.53;5101548;27;70361;-36
2022/04/10 07:56:12;;;;;;;16.70;14.88;;;;;;;33.99;50.28;100510.94;5108851;27;66369;-35
2022/04/10 07:58:43;;;;;;;18.00;14.50;;;;;;;33.69;50.70;100452.31;5090318;27;69730;-35
2022/04/10 08:01:43;;;;;;;17.15;14.10;;;;;;;34.03;50.39;100506.66;5108073;27;66559;-37
2022/04/10 08:04:21;;;;;;;19.52;14.85;;;;;;;34.02;50.58;100503.13;5105379;27;70567;-35
2022/04/10 08:07:36;;;;;;;20.30;14.15;;;;;;;34.02;50.80;100496.84;5098678;27;66116;-36
2022/04/10 08:10:08;;;;;;;17.83;14.43;;;;;;;34.12;50.88;100507.91;5109995;27;69342;-36
2022/04/10 08:12:55;;;;;;;19.85;14.85;;;;;;;34.09;50.89;100492.06;5103719;27;65742;-40
2022/04/10 08:15:26;;;;;;;17.05;14.27;;;;;;;34.09;51.24;100489.34;5089939;27;69985;-37
2022/04/10 08:17:57;;;;;;;25.30;15.23;;;;;;;34.08;51.19;100485.00;5114575;27;66229;-36
2022/04/10 08:20:27;;;;;;;17.50;13.35;;;;;;;34.19;51.10;100507.72;5108844;27;69531;-36
2022/04/10 08:23:00;;;;;;;20.13;15.40;;;;;;;34.10;52.07;100501.91;5105329;27;67218;-37
2022/04/10 08:25:30;;;;;;;;;;;;;;;33.93;52.76;100501.06;5102937;27;70057;-36
2022/04/10 08:28:02;;;;;;;21.58;15.23;;;;;;;34.15;51.65;100504.66;5089718;27;65290;-36
2022/04/10 08:30:33;;;;;;;24.42;15.25;;;;;;;34.23;51.62;100509.69;5094326;27;69408;-36
2022/04/10 08:33:04;;;;;;;21.55;14.85;;;;;;;34.25;51.63;100512.97;5104868;27;66550;-36
2022/04/10 08:35:35;;;;;;;23.45;14.48;;;;;;;34.25;51.81;100526.59;5105198;27;69162;-36
2022/04/10 08:38:06;;;;;;;24.38;15.32;;;;;;;34.25;51.65;100521.16;5128975;27;65522;-36
2022/04/10 08:40:37;;;;;;;22.80;14.77;;;;;;;34.25;51.92;100521.16;5105106;27;70475;-35
2022/04/10 08:43:10;;;;;;;18.17;14.90;;;;;;;34.26;51.87;100516.50;5109276;27;66188;-35
2022/04/10 08:45:45;;;;;;;23.40;14.93;;;;;;;34.28;52.27;100524.44;5108445;27;70527;-36
2022/04/10 08:48:17;;;;;;;20.35;14.40;;;;;;;33.87;52.14;100456.63;5106415;27;65811;-35
2022/04/10 08:50:50;;;;;;;18.75;15.18;;;;;;;34.28;52.13;100529.91;5119004;27;44644;-36
2022/04/10 08:53:24;;;;;;;18.70;15.18;;;;;;;34.29;51.63;100526.09;5119179;27;65738;-36
2022/04/10 08:55:55;;;;;;;25.30;14.93;;;;;;;34.28;51.92;100524.44;5106953;27;70718;-36
2022/04/10 08:58:26;;;;;;;20.47;14.93;;;;;;;34.21;51.96;100521.88;5114414;27;67183;-38
2022/04/10 09:01:00;;;;;;;19.65;14.93;;;;;;;34.24;51.86;100524.09;5107826;27;70565;-36
2022/04/10 09:03:31;;;;;;;17.47;14.60;;;;;;;34.26;51.82;100517.34;5105097;27;65632;-35
2022/04/10 09:06:07;;;;;;;20.25;14.75;;;;;;;33.57;51.98;100421.66;5101215;27;69176;-35
2022/04/10 09:08:38;;;;;;;22.42;15.00;;;;;;;34.29;51.99;100526.09;5113266;27;66141;-35
2022/04/10 09:11:10;;;;;;;18.27;15.43;;;;;;;34.23;52.20;100509.69;5100883;27;69859;-36
2022/04/10 09:13:51;;;;;;;25.85;14.80;;;;;;;33.93;51.95;100462.97;5103183;27;66156;-37
2022/04/10 09:16:23;;;;;;;21.67;15.10;;;;;;;33.94;51.98;100480.97;5104709;27;70363;-36
2022/04/10 09:19:00;;;;;;;20.02;14.95;;;;;;;34.14;52.33;100508.47;5106436;27;66544;-36
2022/04/10 09:21:34;;;;;;;22.42;14.38;;;;;;;34.21;52.71;100530.91;5110001;27;69895;-37
2022/04/10 09:24:12;;;;;;;24.15;14.90;;;;;;;34.25;52.81;100536.66;5105235;27;66093;-36
2022/04/10 09:26:47;;;;;;;15.80;14.10;;;;;;;34.21;52.61;100530.91;5111915;27;69533;-36
2022/04/10 09:29:19;;;;;;;19.13;13.90;;;;;;;34.20;52.80;100529.25;5099339;27;65172;-36
2022/04/10 09:31:52;;;;;;;15.48;13.88;;;;;;;34.18;53.14;100536.81;5108198;27;69946;-35
2022/04/10 09:34:30;;;;;;;17.20;13.52;;;;;;;34.09;52.86;100521.19;5105536;27;66474;-36
2022/04/10 09:37:21;;;;;;;18.40;13.33;;;;;;;34.18;53.16;100539.53;5104277;27;70583;-37
2022/04/10 09:39:52;;;;;;;;;;;;;;;33.79;53.99;100544.97;5122685;27;66259;-36
2022/04/10 09:42:34;;;;;;;15.43;12.20;;;;;;;34.07;53.46;100540.47;5115285;27;69164;-35
2022/04/10 09:45:27;;;;;;;17.50;13.43;;;;;;;34.08;53.38;100546.78;5112489;27;65737;-36
2022/04/10 09:48:16;;;;;;;16.00;13.15;;;;;;;34.08;53.54;100544.88;5119200;27;69792;-36
2022/04/10 09:50:48;;;;;;;25.05;14.15;;;;;;;33.72;53.42;100500.78;5113162;27;65812;-36
2022/04/10 09:53:21;;;;;;;25.58;15.68;;;;;;;33.95;53.35;100545.19;5107195;27;70825;-35
2022/04/10 09:55:57;;;;;;;25.88;14.13;;;;;;;33.91;53.43;100541.31;5106284;27;66253;-34
2022/04/10 09:58:30;;;;;;;23.65;13.88;;;;;;;33.92;53.72;100560.09;5112298;27;68565;-36
2022/04/10 10:01:04;;;;;;;26.60;15.43;;;;;;;33.91;53.98;100566.63;5114338;27;66738;-35
2022/04/10 10:03:38;;;;;;;22.35;14.70;;;;;;;33.86;54.05;100571.16;5097428;27;69298;-37
2022/04/10 10:06:12;;;;;;;22.25;14.23;;;;;;;33.85;53.83;100574.94;5113692;27;66157;-34
2022/04/10 10:08:44;;;;;;;20.70;13.80;;;;;;;33.81;54.22;100570.00;5107821;27;68595;-36
2022/04/10 10:11:15;;;;;;;20.48;13.00;;;;;;;33.72;54.23;100559.78;5110157;27;65102;-35
2022/04/10 10:13:49;;;;;;;20.90;13.18;;;;;;;33.74;54.47;100579.41;5116098;27;71112;-34
2022/04/10 10:16:21;;;;;;;15.90;13.70;;;;;;;33.72;54.40;100578.84;5105085;27;65487;-35
2022/04/10 10:18:53;;;;;;;20.25;12.70;;;;;;;33.75;54.55;100597.38;5095448;27;69940;-34
2022/04/10 10:21:28;;;;;;;22.00;13.52;;;;;;;33.68;54.81;100589.38;5110055;27;66347;-35
2022/04/10 10:24:00;;;;;;;16.17;13.57;;;;;;;33.65;54.63;100589.03;5106800;27;69336;-34
2022/04/10 10:26:49;;;;;;;21.73;12.57;;;;;;;33.65;54.71;100592.56;5089163;27;66095;-35
2022/04/10 10:29:55;;;;;;;22.60;13.00;;;;;;;33.62;54.82;100593.06;5105837;27;69883;-36
2022/04/10 10:32:39;;;;;;;12.77;11.40;;;;;;;33.64;54.81;100596.38;5112580;27;66014;-36
2022/04/10 10:35:12;;;;;;;17.48;12.15;;;;;;;33.63;55.31;100589.31;5103844;27;70236;-37
2022/04/10 10:38:02;;;;;;;22.75;11.55;;;;;;;33.49;55.46;100593.34;5108429;27;66643;-35
2022/04/10 10:40:33;;;;;;;19.25;11.88;;;;;;;33.61;55.44;100602.31;5112144;27;69416;-35
2022/04/10 10:43:05;;;;;;;26.43;12.27;;;;;;;33.57;55.27;100612.03;5107448;27;65270;-35
2022/04/10 10:45:37;;;;;;;23.83;13.60;;;;;;;33.53;55.72;100610.88;5087554;27;68657;-35
2022/04/10 10:48:33;;;;;;;24.67;14.15;;;;;;;33.43;55.75;100616.91;5108014;27;65643;-35
2022/04/10 10:51:24;;;;;;;24.55;16.02;;;;;;;33.41;56.05;100615.53;5105131;27;70089;-36
2022/04/10 10:53:57;;;;;;;28.15;13.80;;;;;;;33.26;55.58;100576.09;5114339;27;66045;-37
2022/04/10 10:56:33;;;;;;;26.13;13.90;;;;;;;33.52;55.64;100625.53;5103594;27;70082;-35
2022/04/10 10:59:25;;;;;;;24.65;15.88;;;;;;;33.40;56.11;100635.63;5109760;27;66456;-35
2022/04/10 11:02:03;;;;;;;29.83;17.10;;;;;;;33.23;56.06;100606.47;5121277;27;70320;-35
2022/04/10 11:04:52;;;;;;;27.77;17.17;;;;;;;32.90;56.04;100572.69;5112428;27;65935;-35
2022/04/10 11:07:27;;;;;;;29.85;17.30;;;;;;;33.40;56.21;100632.91;5103934;27;70278;-35
2022/04/10 11:10:03;;;;;;;24.77;17.27;;;;;;;33.33;56.38;100650.19;5106677;27;65341;-35
2022/04/10 11:12:46;;;;;;;22.55;16.27;;;;;;;33.40;56.42;100660.09;5119806;27;69963;-38
2022/04/10 11:15:19;;;;;;;27.27;15.43;;;;;;;33.33;56.47;100666.50;5090997;27;66638;-38
2022/04/10 11:17:53;;;;;;;19.70;13.75;;;;;;;33.32;56.16;100659.41;5127755;27;68547;-35
2022/04/10 11:20:24;;;;;;;19.95;12.82;;;;;;;33.37;56.13;100667.66;5092195;27;64787;-35
2022/04/10 11:23:00;;;;;;;20.57;12.47;;;;;;;33.35;56.42;100664.38;5108895;27;70536;-35
2022/04/10 11:25:38;;;;;;;20.85;12.90;;;;;;;33.31;56.59;100663.19;5057107;27;64981;-35
2022/04/10 11:28:10;;;;;;;29.67;12.75;;;;;;;33.32;56.33;100656.69;5109896;27;71365;-36
2022/04/10 11:30:46;;;;;;;25.77;13.48;;;;;;;33.20;56.58;100655.91;5104590;27;66086;-35
2022/04/10 11:33:17;;;;;;;25.30;11.77;;;;;;;33.20;56.69;100677.66;5110816;27;70276;-35
2022/04/10 11:35:56;;;;;;;27.70;11.77;;;;;;;33.19;56.64;100681.44;5105784;27;66230;-35
2022/04/10 11:38:27;;;;;;;36.10;12.85;;;;;;;33.22;56.76;100683.69;5123756;27;69682;-35
2022/04/10 11:40:58;;;;;;;37.95;13.02;;;;;;;33.22;56.62;100686.41;5106109;27;65679;-35
2022/04/10 11:43:31;;;;;;;26.23;12.37;;;;;;;33.15;56.61;100686.53;5102178;27;71324;-36
2022/04/10 11:46:02;;;;;;;26.45;11.57;;;;;;;32.99;56.82;100656.50;5116360;27;65628;-37
2022/04/10 11:48:33;;;;;;;17.67;11.63;;;;;;;33.15;56.96;100697.41;5111430;27;70072;-35
2022/04/10 11:51:08;;;;;;;34.42;14.52;;;;;;;33.14;56.77;100705.78;5105475;27;66177;-36
2022/04/10 11:53:39;;;;;;;21.92;13.82;;;;;;;33.03;56.93;100687.63;5119819;27;69563;-35
2022/04/10 11:56:12;;;;;;;20.20;12.80;;;;;;;32.71;56.94;100642.66;5108165;27;65953;-35
2022/04/10 11:58:43;;;;;;;22.23;13.88;;;;;;;33.07;57.01;100710.53;5119343;27;69608;-35
2022/04/10 12:01:14;;;;;;;21.85;14.35;;;;;;;33.03;56.89;100712.09;5109660;27;66047;-36
2022/04/10 12:03:50;;;;;;;22.17;14.32;;;;;;;33.01;56.99;100717.75;5097538;27;69868;-35
2022/04/10 12:06:22;;;;;;;20.27;14.43;;;;;;;32.98;57.08;100717.38;5112427;27;65459;-35
2022/04/10 12:08:55;;;;;;;20.88;14.65;;;;;;;32.95;57.17;100721.38;5074679;27;69226;-35
2022/04/10 12:11:26;;;;;;;22.13;13.77;;;;;;;33.00;57.08;100720.72;5104954;27;65441;-35